Time,TemperatureF,DewpointF,PressureIn,WindDirection,WindDirectionDegrees,WindSpeedMPH,WindSpeedGustMPH,Humidity,HourlyPrecipIn,Conditions,Clouds,dailyrainin,SoftwareType,DateUTC
2013-02-26 00:02:00,30.1,26.0,30.21,NNW,338,0.0,-999.0,86,-99.99,,,0.00,weatherlink.com 1.10,2013-02-26 05:02:00,
2013-02-26 00:17:00,29.8,26.0,30.21,NNW,338,0.0,-999.0,85,-99.99,,,0.00,weatherlink.com 1.10,2013-02-26 05:17:00,
2013-02-26 00:33:00,29.4,26.0,30.21,NNW,338,0.0,-999.0,86,-99.99,,,0.00,weatherlink.com 1.10,2013-02-26 05:33:00,
2013-02-26 00:48:00,29.0,25.0,30.20,NNW,338,0.0,-999.0,86,-99.99,,,0.00,weatherlink.com 1.10,2013-02-26 05:48:00,
2013-02-26 01:03:00,28.4,25.0,30.19,NNW,338,0.0,-999.0,86,-99.99,,,0.00,weatherlink.com 1.10,2013-02-26 06:03:00,
2013-02-26 01:18:00,27.8,24.0,30.19,NNW,338,0.0,-999.0,86,-99.99,,,0.00,weatherlink.com 1.10,2013-02-26 06:18:00,
2013-02-26 01:33:00,27.5,24.0,30.21,NNW,338,0.0,-999.0,86,-99.99,,,0.00,weatherlink.com 1.10,2013-02-26 06:33:00,
2013-02-26 01:48:00,27.1,24.0,30.21,NNW,339,0.0,-999.0,87,-99.99,,,0.00,weatherlink.com 1.10,2013-02-26 06:48:00,
2013-02-26 02:03:00,26.9,24.0,30.23,NNW,339,0.0,-999.0,88,-99.99,,,0.00,weatherlink.com 1.10,2013-02-26 07:03:00,
2013-02-26 02:18:00,26.6,23.0,30.23,NNW,339,0.0,-999.0,87,-99.99,,,0.00,weatherlink.com 1.10,2013-02-26 07:18:00,
2013-02-26 02:33:00,26.2,23.0,30.23,NNW,339,0.0,-999.0,87,-99.99,,,0.00,weatherlink.com 1.10,2013-02-26 07:33:00,
2013-02-26 02:48:00,25.9,23.0,30.23,NNW,339,0.0,-999.0,88,-99.99,,,0.00,weatherlink.com 1.10,2013-02-26 07:48:00,
2013-02-26 03:03:00,25.6,23.0,30.24,NNW,339,0.0,-999.0,88,-99.99,,,0.00,weatherlink.com 1.10,2013-02-26 08:03:00,
2013-02-26 03:18:00,25.2,22.0,30.23,NNW,339,0.0,-999.0,88,-99.99,,,0.00,weatherlink.com 1.10,2013-02-26 08:18:00,
2013-02-26 03:33:00,25.1,22.0,30.23,NNW,339,0.0,-999.0,89,-99.99,,,0.00,weatherlink.com 1.10,2013-02-26 08:33:00,
2013-02-26 03:48:00,24.9,22.0,30.23,NNW,339,0.0,-999.0,89,-99.99,,,0.00,weatherlink.com 1.10,2013-02-26 08:48:00,
2013-02-26 04:03:00,24.8,22.0,30.22,NNW,339,0.0,-999.0,89,-99.99,,,0.00,weatherlink.com 1.10,2013-02-26 09:03:00,
2013-02-26 04:18:00,24.8,22.0,30.23,NNW,339,0.0,-999.0,89,-99.99,,,0.00,weatherlink.com 1.10,2013-02-26 09:18:00,
2013-02-26 04:33:00,24.5,22.0,30.23,NNW,339,0.0,-999.0,89,-99.99,,,0.00,weatherlink.com 1.10,2013-02-26 09:33:00,
2013-02-26 04:48:00,24.3,22.0,30.24,NNW,339,0.0,-999.0,89,-99.99,,,0.00,weatherlink.com 1.10,2013-02-26 09:48:00,
2013-02-26 05:03:00,24.2,22.0,30.24,NNW,339,0.0,-999.0,89,-99.99,,,0.00,weatherlink.com 1.10,2013-02-26 10:03:00,
2013-02-26 05:18:00,24.0,21.0,30.25,NNW,339,0.0,-999.0,89,-99.99,,,0.00,weatherlink.com 1.10,2013-02-26 10:18:00,
2013-02-26 05:33:00,23.9,21.0,30.25,NNW,339,0.0,-999.0,90,-99.99,,,0.00,weatherlink.com 1.10,2013-02-26 10:33:00,
2013-02-26 05:48:00,23.7,21.0,30.25,NNW,339,0.0,-999.0,90,-99.99,,,0.00,weatherlink.com 1.10,2013-02-26 10:48:00,
2013-02-26 06:03:00,24.5,22.0,30.24,NNW,339,0.0,-999.0,91,-99.99,,,0.00,weatherlink.com 1.10,2013-02-26 11:03:00,
2013-02-26 06:18:00,24.7,23.0,30.25,NNW,339,0.0,-999.0,91,-99.99,,,0.00,weatherlink.com 1.10,2013-02-26 11:18:00,
2013-02-26 06:33:00,24.8,22.0,30.25,NNW,339,0.0,-999.0,90,-99.99,,,0.00,weatherlink.com 1.10,2013-02-26 11:33:00,
2013-02-26 06:48:00,25.0,23.0,30.25,NNW,339,0.0,-999.0,90,-99.99,,,0.00,weatherlink.com 1.10,2013-02-26 11:48:00,
2013-02-26 07:03:00,25.1,23.0,30.25,NNW,339,0.0,-999.0,90,-99.99,,,0.00,weatherlink.com 1.10,2013-02-26 12:03:00,
2013-02-26 07:18:00,25.0,23.0,30.25,NNW,339,0.0,-999.0,90,-99.99,,,0.00,weatherlink.com 1.10,2013-02-26 12:18:00,
2013-02-26 07:33:00,25.0,23.0,30.25,NNW,339,0.0,-999.0,90,-99.99,,,0.00,weatherlink.com 1.10,2013-02-26 12:33:00,
2013-02-26 07:48:00,27.3,25.0,30.26,NNW,339,0.0,-999.0,92,-99.99,,,0.00,weatherlink.com 1.10,2013-02-26 12:48:00,
2013-02-26 08:03:00,29.9,28.0,30.26,East,96,0.0,-999.0,92,-99.99,,,0.00,weatherlink.com 1.10,2013-02-26 13:03:00,
2013-02-26 08:33:00,33.7,29.0,30.27,East,81,1.0,-999.0,82,-99.99,,,0.00,weatherlink.com 1.10,2013-02-26 13:33:00,
2013-02-26 08:48:00,34.9,29.0,30.26,ESE,111,2.0,-999.0,78,-99.99,,,0.00,weatherlink.com 1.10,2013-02-26 13:48:00,
2013-02-26 09:03:00,35.7,29.0,30.26,ESE,107,1.0,-999.0,76,-99.99,,,0.00,weatherlink.com 1.10,2013-02-26 14:03:00,
2013-02-26 09:18:00,35.8,29.0,30.26,ESE,105,0.0,-999.0,75,-99.99,,,0.00,weatherlink.com 1.10,2013-02-26 14:18:00,
2013-02-26 09:33:00,36.2,28.0,30.27,ESE,116,1.0,-999.0,71,-99.99,,,0.00,weatherlink.com 1.10,2013-02-26 14:33:00,
2013-02-26 09:49:00,35.8,28.0,30.28,ESE,119,0.0,-999.0,72,-99.99,,,0.00,weatherlink.com 1.10,2013-02-26 14:49:00,
2013-02-26 10:04:00,36.0,27.0,30.28,SE,128,0.0,-999.0,71,-99.99,,,0.00,weatherlink.com 1.10,2013-02-26 15:04:00,
2013-02-26 10:19:00,36.6,27.0,30.27,SE,144,2.0,-999.0,69,-99.99,,,0.00,weatherlink.com 1.10,2013-02-26 15:19:00,
2013-02-26 10:34:00,36.9,27.0,30.27,ENE,71,2.0,-999.0,68,-99.99,,,0.00,weatherlink.com 1.10,2013-02-26 15:34:00,
2013-02-26 10:49:00,37.2,27.0,30.26,SE,125,2.0,-999.0,67,-99.99,,,0.00,weatherlink.com 1.10,2013-02-26 15:49:00,
2013-02-26 11:04:00,37.5,27.0,30.26,ESE,115,3.0,-999.0,66,-99.99,,,0.00,weatherlink.com 1.10,2013-02-26 16:04:00,
2013-02-26 11:19:00,37.8,27.0,30.26,ENE,67,3.0,-999.0,65,-99.99,,,0.00,weatherlink.com 1.10,2013-02-26 16:19:00,
2013-02-26 11:34:00,38.3,27.0,30.26,SE,136,4.0,-999.0,63,-99.99,,,0.00,weatherlink.com 1.10,2013-02-26 16:34:00,
2013-02-26 11:49:00,38.8,27.0,30.25,ESE,109,0.0,-999.0,62,-99.99,,,0.00,weatherlink.com 1.10,2013-02-26 16:49:00,
2013-02-26 12:04:00,38.8,26.0,30.25,NNE,33,4.0,-999.0,61,-99.99,,,0.00,weatherlink.com 1.10,2013-02-26 17:04:00,
2013-02-26 12:19:00,39.4,27.0,30.25,ESE,116,3.0,-999.0,61,-99.99,,,0.00,weatherlink.com 1.10,2013-02-26 17:19:00,
2013-02-26 12:34:00,39.7,27.0,30.24,SE,130,5.0,-999.0,60,-99.99,,,0.00,weatherlink.com 1.10,2013-02-26 17:34:00,
2013-02-26 12:49:00,39.6,27.0,30.24,SSE,158,4.0,-999.0,60,-99.99,,,0.00,weatherlink.com 1.10,2013-02-26 17:49:00,
2013-02-26 13:04:00,39.4,26.0,30.22,SSE,148,2.0,-999.0,60,-99.99,,,0.00,weatherlink.com 1.10,2013-02-26 18:04:00,
2013-02-26 13:19:00,39.1,27.0,30.22,ENE,71,1.0,-999.0,61,-99.99,,,0.00,weatherlink.com 1.10,2013-02-26 18:19:00,
2013-02-26 13:34:00,39.0,26.0,30.21,East,95,1.0,-999.0,61,-99.99,,,0.00,weatherlink.com 1.10,2013-02-26 18:34:00,
2013-02-26 13:49:00,39.1,26.0,30.21,SE,141,3.0,-999.0,60,-99.99,,,0.00,weatherlink.com 1.10,2013-02-26 18:49:00,
2013-02-26 14:04:00,39.2,26.0,30.19,SSE,148,1.0,-999.0,60,-99.99,,,0.00,weatherlink.com 1.10,2013-02-26 19:04:00,
2013-02-26 14:19:00,38.9,26.0,30.20,SE,146,0.0,-999.0,60,-99.99,,,0.00,weatherlink.com 1.10,2013-02-26 19:19:00,
2013-02-26 14:34:00,38.6,26.0,30.19,ESE,108,0.0,-999.0,61,-99.99,,,0.00,weatherlink.com 1.10,2013-02-26 19:34:00,
2013-02-26 14:49:00,38.3,26.0,30.19,SE,142,3.0,-999.0,62,-99.99,,,0.00,weatherlink.com 1.10,2013-02-26 19:49:00,
2013-02-26 15:04:00,38.2,26.0,30.19,ESE,103,2.0,-999.0,62,-99.99,,,0.00,weatherlink.com 1.10,2013-02-26 20:04:00,
2013-02-26 15:19:00,38.0,27.0,30.19,ESE,106,4.0,-999.0,64,-99.99,,,0.00,weatherlink.com 1.10,2013-02-26 20:19:00,
2013-02-26 15:34:00,37.5,26.0,30.20,East,95,1.0,-999.0,64,-99.99,,,0.00,weatherlink.com 1.10,2013-02-26 20:34:00,
2013-02-26 16:04:00,36.5,26.0,30.18,ESE,119,1.0,-999.0,67,-99.99,,,0.00,weatherlink.com 1.10,2013-02-26 21:04:00,
2013-02-26 16:19:00,36.1,26.0,30.18,SE,137,0.0,-999.0,68,-99.99,,,0.00,weatherlink.com 1.10,2013-02-26 21:19:00,
2013-02-26 16:34:00,35.9,27.0,30.16,ESE,113,0.0,-999.0,69,-99.99,,,0.00,weatherlink.com 1.10,2013-02-26 21:34:00,
2013-02-26 16:49:00,35.5,27.0,30.16,East,96,0.0,-999.0,70,-99.99,,,0.00,weatherlink.com 1.10,2013-02-26 21:49:00,
2013-02-26 17:04:00,35.4,27.0,30.16,ESE,104,1.0,-999.0,70,-99.99,,,0.00,weatherlink.com 1.10,2013-02-26 22:04:00,
2013-02-26 17:19:00,35.2,27.0,30.16,SE,126,0.0,-999.0,71,-99.99,,,0.00,weatherlink.com 1.10,2013-02-26 22:19:00,
2013-02-26 17:34:00,35.0,26.0,30.14,SE,134,4.0,-999.0,71,-99.99,,,0.00,weatherlink.com 1.10,2013-02-26 22:34:00,
2013-02-26 17:49:00,34.7,27.0,30.14,ESE,123,0.0,-999.0,72,-99.99,,,0.00,weatherlink.com 1.10,2013-02-26 22:49:00,
2013-02-26 18:04:00,34.5,27.0,30.13,SE,140,3.0,-999.0,73,-99.99,,,0.00,weatherlink.com 1.10,2013-02-26 23:04:00,
2013-02-26 18:19:00,34.4,27.0,30.13,ESE,112,1.0,-999.0,74,-99.99,,,0.00,weatherlink.com 1.10,2013-02-26 23:19:00,
2013-02-26 18:34:00,34.3,27.0,30.14,ESE,104,0.0,-999.0,74,-99.99,,,0.00,weatherlink.com 1.10,2013-02-26 23:34:00,
2013-02-26 18:49:00,34.2,27.0,30.15,ESE,117,1.0,-999.0,74,-99.99,,,0.00,weatherlink.com 1.10,2013-02-26 23:49:00,
2013-02-26 19:04:00,34.1,27.0,30.15,SE,132,3.0,-999.0,74,-99.99,,,0.00,weatherlink.com 1.10,2013-02-27 00:04:00,
2013-02-26 19:19:00,33.9,26.0,30.14,ESE,119,5.0,-999.0,73,-99.99,,,0.00,weatherlink.com 1.10,2013-02-27 00:19:00,
2013-02-26 19:34:00,33.8,26.0,30.12,SSE,150,4.0,-999.0,72,-99.99,,,0.00,weatherlink.com 1.10,2013-02-27 00:34:00,
2013-02-26 19:49:00,33.6,25.0,30.11,NE,42,3.0,-999.0,72,-99.99,,,0.00,weatherlink.com 1.10,2013-02-27 00:49:00,
2013-02-26 20:04:00,33.5,26.0,30.10,ESE,121,2.0,-999.0,73,-99.99,,,0.00,weatherlink.com 1.10,2013-02-27 01:04:00,
2013-02-26 20:19:00,33.5,26.0,30.10,SE,141,3.0,-999.0,73,-99.99,,,0.00,weatherlink.com 1.10,2013-02-27 01:19:00,
2013-02-26 20:34:00,33.4,26.0,30.10,ESE,122,2.0,-999.0,73,-99.99,,,0.00,weatherlink.com 1.10,2013-02-27 01:34:00,
2013-02-26 20:49:00,33.4,25.0,30.08,SE,138,3.0,-999.0,72,-99.99,,,0.00,weatherlink.com 1.10,2013-02-27 01:49:00,
2013-02-26 21:04:00,33.2,25.0,30.06,SE,136,4.0,-999.0,72,-99.99,,,0.00,weatherlink.com 1.10,2013-02-27 02:04:00,
2013-02-26 21:20:00,33.2,25.0,30.06,East,97,3.0,-999.0,72,-99.99,,,0.00,weatherlink.com 1.10,2013-02-27 02:20:00,
2013-02-26 21:34:00,33.1,25.0,30.05,East,95,6.0,-999.0,73,-99.99,,,0.00,weatherlink.com 1.10,2013-02-27 02:34:00,
2013-02-26 21:49:00,33.0,26.0,30.04,SE,138,10.0,-999.0,74,-99.99,,,0.00,weatherlink.com 1.10,2013-02-27 02:49:00,
2013-02-26 22:04:00,33.0,25.0,30.04,SE,127,9.0,-999.0,71,-99.99,,,0.00,weatherlink.com 1.10,2013-02-27 03:04:00,
2013-02-26 22:20:00,32.9,24.0,30.02,ESE,104,4.0,-999.0,71,-99.99,,,0.00,weatherlink.com 1.10,2013-02-27 03:20:00,
2013-02-26 22:34:00,32.8,24.0,30.03,SSE,158,5.0,-999.0,71,-99.99,,,0.00,weatherlink.com 1.10,2013-02-27 03:34:00,
2013-02-26 22:49:00,32.6,25.0,30.02,ESE,108,3.0,-999.0,73,-99.99,,,0.00,weatherlink.com 1.10,2013-02-27 03:49:00,
2013-02-26 23:05:00,32.3,25.0,30.01,ESE,102,2.0,-999.0,74,-99.99,,,0.00,weatherlink.com 1.10,2013-02-27 04:05:00,
2013-02-26 23:20:00,32.0,25.0,30.00,SE,134,7.0,-999.0,76,-99.99,,,0.00,weatherlink.com 1.10,2013-02-27 04:20:00,
2013-02-26 23:35:00,31.7,26.0,29.99,South,169,2.0,-999.0,78,-99.99,,,0.00,weatherlink.com 1.10,2013-02-27 04:35:00,
2013-02-26 23:50:00,31.5,26.0,29.99,East,100,4.0,-999.0,80,-99.99,,,0.00,weatherlink.com 1.10,2013-02-27 04:50:00,